sensor_id;sensor_type;location;lat;lon;timestamp;temperature;humidity
15409;DHT22;7803;48.130;13.788;2024-01-11T00:00:55;23.90;61.40
15409;DHT22;7803;48.130;13.788;2024-01-11T00:03:59;23.90;61.50
15409;DHT22;7803;48.130;13.788;2024-01-11T00:07:01;23.80;61.30
15409;DHT22;7803;48.130;13.788;2024-01-11T00:10:05;23.80;61.40
15409;DHT22;7803;48.130;13.788;2024-01-11T00:13:07;23.80;61.40
15409;DHT22;7803;48.130;13.788;2024-01-11T00:16:09;23.80;61.50
15409;DHT22;7803;48.130;13.788;2024-01-11T00:19:11;23.80;61.50
15409;DHT22;7803;48.130;13.788;2024-01-11T00:22:13;23.70;61.40
15409;DHT22;7803;48.130;13.788;2024-01-11T00:25:17;23.70;61.50
15409;DHT22;7803;48.130;13.788;2024-01-11T00:28:19;23.70;61.40
15409;DHT22;7803;48.130;13.788;2024-01-11T00:31:21;23.70;61.40
15409;DHT22;7803;48.130;13.788;2024-01-11T00:34:23;23.70;61.30
15409;DHT22;7803;48.130;13.788;2024-01-11T00:37:25;23.70;61.20
15409;DHT22;7803;48.130;13.788;2024-01-11T00:40:28;23.70;61.20
15409;DHT22;7803;48.130;13.788;2024-01-11T00:43:30;23.70;61.20
15409;DHT22;7803;48.130;13.788;2024-01-11T00:46:32;23.60;61.20
15409;DHT22;7803;48.130;13.788;2024-01-11T00:49:34;23.60;61.00
15409;DHT22;7803;48.130;13.788;2024-01-11T00:52:36;23.60;61.00
15409;DHT22;7803;48.130;13.788;2024-01-11T00:55:40;23.60;61.10
15409;DHT22;7803;48.130;13.788;2024-01-11T00:58:42;23.60;61.00
15409;DHT22;7803;48.130;13.788;2024-01-11T01:01:47;23.60;61.00
15409;DHT22;7803;48.130;13.788;2024-01-11T01:04:49;23.60;61.00
15409;DHT22;7803;48.130;13.788;2024-01-11T01:07:51;23.60;61.00
15409;DHT22;7803;48.130;13.788;2024-01-11T01:10:55;23.60;61.00
15409;DHT22;7803;48.130;13.788;2024-01-11T01:13:59;23.60;61.10
15409;DHT22;7803;48.130;13.788;2024-01-11T01:17:01;23.60;61.00
15409;DHT22;7803;48.130;13.788;2024-01-11T01:20:04;23.50;61.00
15409;DHT22;7803;48.130;13.788;2024-01-11T01:23:07;23.50;61.00
15409;DHT22;7803;48.130;13.788;2024-01-11T01:26:10;23.50;61.10
15409;DHT22;7803;48.130;13.788;2024-01-11T01:29:12;23.50;61.00
15409;DHT22;7803;48.130;13.788;2024-01-11T01:32:14;23.50;61.10
15409;DHT22;7803;48.130;13.788;2024-01-11T01:35:16;23.50;61.00
15409;DHT22;7803;48.130;13.788;2024-01-11T01:38:18;23.50;60.90
15409;DHT22;7803;48.130;13.788;2024-01-11T01:41:21;23.40;61.00
15409;DHT22;7803;48.130;13.788;2024-01-11T01:44:23;23.40;60.90
15409;DHT22;7803;48.130;13.788;2024-01-11T01:47:25;23.50;61.00
15409;DHT22;7803;48.130;13.788;2024-01-11T01:50:28;23.50;60.80
15409;DHT22;7803;48.130;13.788;2024-01-11T01:53:31;23.40;60.90
15409;DHT22;7803;48.130;13.788;2024-01-11T01:56:34;23.40;60.90
15409;DHT22;7803;48.130;13.788;2024-01-11T01:59:36;23.40;61.00
15409;DHT22;7803;48.130;13.788;2024-01-11T02:02:40;23.40;61.10
15409;DHT22;7803;48.130;13.788;2024-01-11T02:05:44;23.40;61.20
15409;DHT22;7803;48.130;13.788;2024-01-11T02:08:47;23.40;61.20
15409;DHT22;7803;48.130;13.788;2024-01-11T02:11:52;23.40;61.10
15409;DHT22;7803;48.130;13.788;2024-01-11T02:14:54;23.40;61.20
15409;DHT22;7803;48.130;13.788;2024-01-11T02:17:56;23.40;61.20
15409;DHT22;7803;48.130;13.788;2024-01-11T02:20:58;23.50;61.30
15409;DHT22;7803;48.130;13.788;2024-01-11T02:24:04;23.40;61.20
15409;DHT22;7803;48.130;13.788;2024-01-11T02:27:07;23.40;61.10
15409;DHT22;7803;48.130;13.788;2024-01-11T02:30:11;23.50;61.20
15409;DHT22;7803;48.130;13.788;2024-01-11T02:33:13;23.50;61.10
15409;DHT22;7803;48.130;13.788;2024-01-11T02:36:17;23.50;61.10
15409;DHT22;7803;48.130;13.788;2024-01-11T02:39:21;23.50;61.10
15409;DHT22;7803;48.130;13.788;2024-01-11T02:42:24;23.40;61.10
15409;DHT22;7803;48.130;13.788;2024-01-11T02:45:27;23.50;61.10
15409;DHT22;7803;48.130;13.788;2024-01-11T02:48:29;23.50;61.10
15409;DHT22;7803;48.130;13.788;2024-01-11T02:51:31;23.40;61.00
15409;DHT22;7803;48.130;13.788;2024-01-11T02:54:35;23.50;61.00
15409;DHT22;7803;48.130;13.788;2024-01-11T02:57:37;23.40;61.00
15409;DHT22;7803;48.130;13.788;2024-01-11T03:00:39;23.40;61.10
15409;DHT22;7803;48.130;13.788;2024-01-11T03:03:41;23.50;61.10
15409;DHT22;7803;48.130;13.788;2024-01-11T03:06:43;23.40;61.00
15409;DHT22;7803;48.130;13.788;2024-01-11T03:09:46;23.40;60.90
15409;DHT22;7803;48.130;13.788;2024-01-11T03:12:48;23.40;61.00
15409;DHT22;7803;48.130;13.788;2024-01-11T03:15:50;23.40;61.00
15409;DHT22;7803;48.130;13.788;2024-01-11T03:18:52;23.40;60.90
15409;DHT22;7803;48.130;13.788;2024-01-11T03:21:54;23.40;60.90
15409;DHT22;7803;48.130;13.788;2024-01-11T03:24:58;23.40;60.80
15409;DHT22;7803;48.130;13.788;2024-01-11T03:27:59;23.40;60.80
15409;DHT22;7803;48.130;13.788;2024-01-11T03:31:01;23.40;60.80
15409;DHT22;7803;48.130;13.788;2024-01-11T03:34:04;23.40;60.80
15409;DHT22;7803;48.130;13.788;2024-01-11T03:37:06;23.40;60.80
15409;DHT22;7803;48.130;13.788;2024-01-11T03:40:10;23.40;60.80
15409;DHT22;7803;48.130;13.788;2024-01-11T03:43:12;23.40;60.80
15409;DHT22;7803;48.130;13.788;2024-01-11T03:46:14;23.40;60.80
15409;DHT22;7803;48.130;13.788;2024-01-11T03:49:16;23.40;60.80
15409;DHT22;7803;48.130;13.788;2024-01-11T03:52:18;23.40;60.80
15409;DHT22;7803;48.130;13.788;2024-01-11T03:55:21;23.40;61.00
15409;DHT22;7803;48.130;13.788;2024-01-11T03:58:23;23.40;60.80
15409;DHT22;7803;48.130;13.788;2024-01-11T04:01:27;23.40;60.80
15409;DHT22;7803;48.130;13.788;2024-01-11T04:04:29;23.40;60.80
15409;DHT22;7803;48.130;13.788;2024-01-11T04:07:31;23.40;60.90
15409;DHT22;7803;48.130;13.788;2024-01-11T04:10:34;23.40;60.80
15409;DHT22;7803;48.130;13.788;2024-01-11T04:13:36;23.40;60.90
15409;DHT22;7803;48.130;13.788;2024-01-11T04:16:40;23.40;60.80
15409;DHT22;7803;48.130;13.788;2024-01-11T04:19:42;23.40;60.80
15409;DHT22;7803;48.130;13.788;2024-01-11T04:22:44;23.40;60.80
15409;DHT22;7803;48.130;13.788;2024-01-11T04:25:48;23.40;60.80
15409;DHT22;7803;48.130;13.788;2024-01-11T04:28:51;23.40;61.00
15409;DHT22;7803;48.130;13.788;2024-01-11T04:31:53;23.40;60.90
15409;DHT22;7803;48.130;13.788;2024-01-11T04:34:55;23.40;61.00
15409;DHT22;7803;48.130;13.788;2024-01-11T04:37:57;23.40;61.00
15409;DHT22;7803;48.130;13.788;2024-01-11T04:41:01;23.40;61.10
15409;DHT22;7803;48.130;13.788;2024-01-11T04:44:03;23.40;61.00
15409;DHT22;7803;48.130;13.788;2024-01-11T04:47:05;23.40;62.00
15409;DHT22;7803;48.130;13.788;2024-01-11T04:50:09;23.40;61.10
15409;DHT22;7803;48.130;13.788;2024-01-11T04:53:11;23.30;60.90
15409;DHT22;7803;48.130;13.788;2024-01-11T04:56:15;23.30;60.80
15409;DHT22;7803;48.130;13.788;2024-01-11T04:59:18;23.40;60.80
15409;DHT22;7803;48.130;13.788;2024-01-11T05:02:20;23.30;60.80
15409;DHT22;7803;48.130;13.788;2024-01-11T05:05:22;23.30;61.00
15409;DHT22;7803;48.130;13.788;2024-01-11T05:08:25;23.30;60.90
15409;DHT22;7803;48.130;13.788;2024-01-11T05:11:29;23.30;61.00
15409;DHT22;7803;48.130;13.788;2024-01-11T05:14:31;23.30;61.00
15409;DHT22;7803;48.130;13.788;2024-01-11T05:17:33;23.30;61.00
15409;DHT22;7803;48.130;13.788;2024-01-11T05:20:35;23.30;60.90
15409;DHT22;7803;48.130;13.788;2024-01-11T05:23:37;23.30;60.80
15409;DHT22;7803;48.130;13.788;2024-01-11T05:26:41;23.30;60.90
15409;DHT22;7803;48.130;13.788;2024-01-11T05:29:43;23.30;60.90
15409;DHT22;7803;48.130;13.788;2024-01-11T05:32:45;23.30;61.00
15409;DHT22;7803;48.130;13.788;2024-01-11T05:35:47;23.30;61.00
15409;DHT22;7803;48.130;13.788;2024-01-11T05:38:49;23.20;60.80
15409;DHT22;7803;48.130;13.788;2024-01-11T05:41:52;23.20;61.00
15409;DHT22;7803;48.130;13.788;2024-01-11T05:44:54;23.20;60.90
15409;DHT22;7803;48.130;13.788;2024-01-11T05:47:56;23.30;61.10
15409;DHT22;7803;48.130;13.788;2024-01-11T05:50:58;23.20;61.00
15409;DHT22;7803;48.130;13.788;2024-01-11T05:54:00;23.20;61.10
15409;DHT22;7803;48.130;13.788;2024-01-11T05:57:04;23.20;62.40
15409;DHT22;7803;48.130;13.788;2024-01-11T06:00:07;23.30;62.20
15409;DHT22;7803;48.130;13.788;2024-01-11T06:03:12;23.30;61.80
15409;DHT22;7803;48.130;13.788;2024-01-11T06:06:14;23.30;61.70
15409;DHT22;7803;48.130;13.788;2024-01-11T06:09:16;23.30;62.40
15409;DHT22;7803;48.130;13.788;2024-01-11T06:12:19;23.30;63.70
15409;DHT22;7803;48.130;13.788;2024-01-11T06:15:21;23.40;64.80
15409;DHT22;7803;48.130;13.788;2024-01-11T06:18:23;23.50;63.80
15409;DHT22;7803;48.130;13.788;2024-01-11T06:21:25;23.60;62.90
15409;DHT22;7803;48.130;13.788;2024-01-11T06:24:27;23.60;62.50
15409;DHT22;7803;48.130;13.788;2024-01-11T06:27:31;23.60;62.30
15409;DHT22;7803;48.130;13.788;2024-01-11T06:30:33;23.50;62.30
15409;DHT22;7803;48.130;13.788;2024-01-11T06:33:35;23.50;62.70
15409;DHT22;7803;48.130;13.788;2024-01-11T06:36:37;23.50;62.80
15409;DHT22;7803;48.130;13.788;2024-01-11T06:39:39;23.40;62.70
15409;DHT22;7803;48.130;13.788;2024-01-11T06:42:43;23.40;62.60
15409;DHT22;7803;48.130;13.788;2024-01-11T06:45:45;23.40;62.70
15409;DHT22;7803;48.130;13.788;2024-01-11T06:48:47;23.40;62.70
15409;DHT22;7803;48.130;13.788;2024-01-11T06:51:49;23.40;62.50
15409;DHT22;7803;48.130;13.788;2024-01-11T06:54:51;23.40;62.50
15409;DHT22;7803;48.130;13.788;2024-01-11T06:57:55;23.40;62.40
15409;DHT22;7803;48.130;13.788;2024-01-11T07:00:58;23.40;62.30
15409;DHT22;7803;48.130;13.788;2024-01-11T07:04:00;23.40;62.60
15409;DHT22;7803;48.130;13.788;2024-01-11T07:07:02;23.40;62.20
15409;DHT22;7803;48.130;13.788;2024-01-11T07:10:06;23.40;62.00
15409;DHT22;7803;48.130;13.788;2024-01-11T07:13:10;23.40;62.20
15409;DHT22;7803;48.130;13.788;2024-01-11T07:16:15;23.40;62.30
15409;DHT22;7803;48.130;13.788;2024-01-11T07:19:17;23.40;62.20
15409;DHT22;7803;48.130;13.788;2024-01-11T07:22:19;23.40;62.20
15409;DHT22;7803;48.130;13.788;2024-01-11T07:25:21;23.40;61.60
15409;DHT22;7803;48.130;13.788;2024-01-11T07:28:25;23.40;58.40
15409;DHT22;7803;48.130;13.788;2024-01-11T07:31:27;23.40;56.40
15409;DHT22;7803;48.130;13.788;2024-01-11T07:34:30;23.40;56.20
15409;DHT22;7803;48.130;13.788;2024-01-11T07:37:32;23.30;56.30
15409;DHT22;7803;48.130;13.788;2024-01-11T07:40:34;23.30;56.40
15409;DHT22;7803;48.130;13.788;2024-01-11T07:43:37;23.30;56.60
15409;DHT22;7803;48.130;13.788;2024-01-11T07:46:39;23.30;56.80
15409;DHT22;7803;48.130;13.788;2024-01-11T07:49:41;23.30;57.20
15409;DHT22;7803;48.130;13.788;2024-01-11T07:52:43;23.30;57.40
15409;DHT22;7803;48.130;13.788;2024-01-11T07:55:46;23.30;57.60
15409;DHT22;7803;48.130;13.788;2024-01-11T07:58:49;23.30;57.70
15409;DHT22;7803;48.130;13.788;2024-01-11T08:01:51;23.30;57.80
15409;DHT22;7803;48.130;13.788;2024-01-11T08:04:54;23.30;58.00
15409;DHT22;7803;48.130;13.788;2024-01-11T08:07:56;23.30;58.10
15409;DHT22;7803;48.130;13.788;2024-01-11T08:11:02;23.30;58.30
15409;DHT22;7803;48.130;13.788;2024-01-11T08:14:06;23.30;58.40
15409;DHT22;7803;48.130;13.788;2024-01-11T08:17:08;23.30;59.30
15409;DHT22;7803;48.130;13.788;2024-01-11T08:20:11;23.30;58.70
15409;DHT22;7803;48.130;13.788;2024-01-11T08:23:13;23.30;58.90
15409;DHT22;7803;48.130;13.788;2024-01-11T08:26:15;23.30;59.10
15409;DHT22;7803;48.130;13.788;2024-01-11T08:29:20;23.30;59.10
15409;DHT22;7803;48.130;13.788;2024-01-11T08:32:23;23.30;59.00
15409;DHT22;7803;48.130;13.788;2024-01-11T08:35:25;23.30;59.10
15409;DHT22;7803;48.130;13.788;2024-01-11T08:38:26;23.30;59.10
15409;DHT22;7803;48.130;13.788;2024-01-11T08:41:30;23.30;59.20
15409;DHT22;7803;48.130;13.788;2024-01-11T08:44:33;23.30;59.30
15409;DHT22;7803;48.130;13.788;2024-01-11T08:47:35;23.30;59.40
15409;DHT22;7803;48.130;13.788;2024-01-11T08:50:38;23.30;59.40
15409;DHT22;7803;48.130;13.788;2024-01-11T08:53:40;23.30;59.50
15409;DHT22;7803;48.130;13.788;2024-01-11T08:56:42;23.30;59.50
15409;DHT22;7803;48.130;13.788;2024-01-11T08:59:46;23.30;59.50
15409;DHT22;7803;48.130;13.788;2024-01-11T09:02:48;23.30;59.60
15409;DHT22;7803;48.130;13.788;2024-01-11T09:05:50;23.30;59.60
15409;DHT22;7803;48.130;13.788;2024-01-11T09:08:52;23.30;59.60
15409;DHT22;7803;48.130;13.788;2024-01-11T09:11:54;23.30;59.70
15409;DHT22;7803;48.130;13.788;2024-01-11T09:14:58;23.30;59.70
15409;DHT22;7803;48.130;13.788;2024-01-11T09:18:00;23.30;59.70
15409;DHT22;7803;48.130;13.788;2024-01-11T09:21:02;23.30;59.70
15409;DHT22;7803;48.130;13.788;2024-01-11T09:24:04;23.40;59.80
15409;DHT22;7803;48.130;13.788;2024-01-11T09:27:07;23.30;59.80
15409;DHT22;7803;48.130;13.788;2024-01-11T09:30:11;23.40;59.80
15409;DHT22;7803;48.130;13.788;2024-01-11T09:33:13;23.30;59.80
15409;DHT22;7803;48.130;13.788;2024-01-11T09:36:15;23.30;59.90
15409;DHT22;7803;48.130;13.788;2024-01-11T09:39:17;23.30;59.90
15409;DHT22;7803;48.130;13.788;2024-01-11T09:42:19;23.30;60.60
15409;DHT22;7803;48.130;13.788;2024-01-11T09:45:22;23.30;62.90
15409;DHT22;7803;48.130;13.788;2024-01-11T09:48:24;23.30;63.50
15409;DHT22;7803;48.130;13.788;2024-01-11T09:51:28;23.40;63.60
15409;DHT22;7803;48.130;13.788;2024-01-11T09:54:31;23.40;63.30
15409;DHT22;7803;48.130;13.788;2024-01-11T09:57:35;23.40;63.20
15409;DHT22;7803;48.130;13.788;2024-01-11T10:00:40;23.30;63.10
15409;DHT22;7803;48.130;13.788;2024-01-11T10:03:43;23.40;63.50
15409;DHT22;7803;48.130;13.788;2024-01-11T10:06:46;23.40;64.80
15409;DHT22;7803;48.130;13.788;2024-01-11T10:09:51;23.40;66.70
15409;DHT22;7803;48.130;13.788;2024-01-11T10:12:53;23.40;67.20
15409;DHT22;7803;48.130;13.788;2024-01-11T10:16:07;23.40;66.70
15409;DHT22;7803;48.130;13.788;2024-01-11T10:19:10;23.40;66.40
15409;DHT22;7803;48.130;13.788;2024-01-11T10:22:14;23.40;66.40
15409;DHT22;7803;48.130;13.788;2024-01-11T10:25:17;23.40;65.60
15409;DHT22;7803;48.130;13.788;2024-01-11T10:28:19;23.50;65.20
15409;DHT22;7803;48.130;13.788;2024-01-11T10:31:23;23.40;67.20
15409;DHT22;7803;48.130;13.788;2024-01-11T10:34:28;23.40;70.80
15409;DHT22;7803;48.130;13.788;2024-01-11T10:37:30;23.40;70.10
15409;DHT22;7803;48.130;13.788;2024-01-11T10:40:33;23.50;67.00
15409;DHT22;7803;48.130;13.788;2024-01-11T10:43:37;23.40;66.70
15409;DHT22;7803;48.130;13.788;2024-01-11T10:46:41;23.50;65.50
15409;DHT22;7803;48.130;13.788;2024-01-11T10:49:45;23.50;63.30
15409;DHT22;7803;48.130;13.788;2024-01-11T10:52:57;23.40;62.70
15409;DHT22;7803;48.130;13.788;2024-01-11T10:56:05;23.40;59.60
15409;DHT22;7803;48.130;13.788;2024-01-11T10:59:08;23.40;59.60
15409;DHT22;7803;48.130;13.788;2024-01-11T11:02:12;23.40;59.80
15409;DHT22;7803;48.130;13.788;2024-01-11T11:05:18;23.40;60.00
15409;DHT22;7803;48.130;13.788;2024-01-11T11:08:22;23.40;60.10
15409;DHT22;7803;48.130;13.788;2024-01-11T11:11:25;23.40;60.50
15409;DHT22;7803;48.130;13.788;2024-01-11T11:14:30;23.40;60.50
15409;DHT22;7803;48.130;13.788;2024-01-11T11:17:35;23.40;60.70
15409;DHT22;7803;48.130;13.788;2024-01-11T11:20:37;23.40;60.80
15409;DHT22;7803;48.130;13.788;2024-01-11T11:23:40;23.40;61.00
15409;DHT22;7803;48.130;13.788;2024-01-11T11:26:42;23.30;61.10
15409;DHT22;7803;48.130;13.788;2024-01-11T11:29:47;23.30;61.20
15409;DHT22;7803;48.130;13.788;2024-01-11T11:32:51;23.40;61.50
15409;DHT22;7803;48.130;13.788;2024-01-11T11:35:54;23.30;61.90
15409;DHT22;7803;48.130;13.788;2024-01-11T11:38:56;23.30;61.60
15409;DHT22;7803;48.130;13.788;2024-01-11T11:42:01;23.30;61.70
15409;DHT22;7803;48.130;13.788;2024-01-11T11:45:06;23.30;61.60
15409;DHT22;7803;48.130;13.788;2024-01-11T11:48:51;23.30;61.60
15409;DHT22;7803;48.130;13.788;2024-01-11T11:51:56;23.30;61.70
15409;DHT22;7803;48.130;13.788;2024-01-11T11:54:59;23.30;61.70
15409;DHT22;7803;48.130;13.788;2024-01-11T11:58:01;23.30;61.80
15409;DHT22;7803;48.130;13.788;2024-01-11T12:01:04;23.30;61.80
15409;DHT22;7803;48.130;13.788;2024-01-11T12:04:08;23.30;61.80
15409;DHT22;7803;48.130;13.788;2024-01-11T12:07:10;23.30;61.60
15409;DHT22;7803;48.130;13.788;2024-01-11T12:10:12;23.30;61.80
15409;DHT22;7803;48.130;13.788;2024-01-11T12:13:14;23.30;62.00
15409;DHT22;7803;48.130;13.788;2024-01-11T12:16:16;23.30;62.50
15409;DHT22;7803;48.130;13.788;2024-01-11T12:19:20;23.30;59.20
15409;DHT22;7803;48.130;13.788;2024-01-11T12:22:22;23.30;56.20
15409;DHT22;7803;48.130;13.788;2024-01-11T12:25:24;23.20;53.00
15409;DHT22;7803;48.130;13.788;2024-01-11T12:28:26;23.10;52.80
15409;DHT22;7803;48.130;13.788;2024-01-11T12:31:28;23.10;53.10
15409;DHT22;7803;48.130;13.788;2024-01-11T12:34:31;23.00;55.00
15409;DHT22;7803;48.130;13.788;2024-01-11T12:37:34;23.00;56.50
15409;DHT22;7803;48.130;13.788;2024-01-11T12:40:37;23.00;57.20
15409;DHT22;7803;48.130;13.788;2024-01-11T12:43:39;23.00;57.60
15409;DHT22;7803;48.130;13.788;2024-01-11T12:46:41;23.00;57.20
15409;DHT22;7803;48.130;13.788;2024-01-11T12:49:45;23.00;57.20
15409;DHT22;7803;48.130;13.788;2024-01-11T12:52:47;23.00;58.00
15409;DHT22;7803;48.130;13.788;2024-01-11T12:56:06;23.00;58.50
15409;DHT22;7803;48.130;13.788;2024-01-11T12:59:11;23.00;59.10
15409;DHT22;7803;48.130;13.788;2024-01-11T13:02:15;23.10;59.90
15409;DHT22;7803;48.130;13.788;2024-01-11T13:05:20;23.00;60.80
15409;DHT22;7803;48.130;13.788;2024-01-11T13:08:22;23.00;62.00
15409;DHT22;7803;48.130;13.788;2024-01-11T13:11:24;23.00;62.20
15409;DHT22;7803;48.130;13.788;2024-01-11T13:14:26;23.10;62.30
15409;DHT22;7803;48.130;13.788;2024-01-11T13:17:29;23.10;62.40
15409;DHT22;7803;48.130;13.788;2024-01-11T13:20:32;23.10;62.30
15409;DHT22;7803;48.130;13.788;2024-01-11T13:23:34;23.10;62.30
15409;DHT22;7803;48.130;13.788;2024-01-11T13:26:38;23.10;62.40
15409;DHT22;7803;48.130;13.788;2024-01-11T13:29:41;23.00;62.30
15409;DHT22;7803;48.130;13.788;2024-01-11T13:32:43;23.10;62.40
15409;DHT22;7803;48.130;13.788;2024-01-11T13:35:46;23.10;62.40
15409;DHT22;7803;48.130;13.788;2024-01-11T13:38:48;23.10;62.40
15409;DHT22;7803;48.130;13.788;2024-01-11T13:41:50;23.10;62.30
15409;DHT22;7803;48.130;13.788;2024-01-11T13:44:52;23.10;62.30
15409;DHT22;7803;48.130;13.788;2024-01-11T13:47:55;23.10;62.30
15409;DHT22;7803;48.130;13.788;2024-01-11T13:50:58;23.10;62.20
15409;DHT22;7803;48.130;13.788;2024-01-11T13:54:02;23.10;62.30
15409;DHT22;7803;48.130;13.788;2024-01-11T13:57:04;23.10;62.00
15409;DHT22;7803;48.130;13.788;2024-01-11T14:00:08;23.10;62.20
15409;DHT22;7803;48.130;13.788;2024-01-11T14:03:12;23.10;62.30
15409;DHT22;7803;48.130;13.788;2024-01-11T14:06:15;23.10;62.20
15409;DHT22;7803;48.130;13.788;2024-01-11T14:09:17;23.10;62.20
15409;DHT22;7803;48.130;13.788;2024-01-11T14:12:19;23.00;62.20
15409;DHT22;7803;48.130;13.788;2024-01-11T14:15:21;23.00;62.20
15409;DHT22;7803;48.130;13.788;2024-01-11T14:18:23;23.10;62.30
15409;DHT22;7803;48.130;13.788;2024-01-11T14:21:27;23.00;62.20
15409;DHT22;7803;48.130;13.788;2024-01-11T14:24:28;23.00;62.30
15409;DHT22;7803;48.130;13.788;2024-01-11T14:27:30;23.00;64.10
15409;DHT22;7803;48.130;13.788;2024-01-11T14:30:32;23.10;66.90
15409;DHT22;7803;48.130;13.788;2024-01-11T14:33:35;23.10;65.70
15409;DHT22;7803;48.130;13.788;2024-01-11T14:36:38;23.10;64.40
15409;DHT22;7803;48.130;13.788;2024-01-11T14:39:40;23.20;63.60
15409;DHT22;7803;48.130;13.788;2024-01-11T14:42:42;23.20;63.20
15409;DHT22;7803;48.130;13.788;2024-01-11T14:45:44;23.20;62.80
15409;DHT22;7803;48.130;13.788;2024-01-11T14:48:46;23.10;62.30
15409;DHT22;7803;48.130;13.788;2024-01-11T14:51:50;23.20;62.30
15409;DHT22;7803;48.130;13.788;2024-01-11T14:54:52;23.10;62.00
15409;DHT22;7803;48.130;13.788;2024-01-11T14:57:54;23.10;62.30
15409;DHT22;7803;48.130;13.788;2024-01-11T15:00:56;23.10;62.50
15409;DHT22;7803;48.130;13.788;2024-01-11T15:03:58;23.10;62.70
15409;DHT22;7803;48.130;13.788;2024-01-11T15:07:02;23.10;63.20
15409;DHT22;7803;48.130;13.788;2024-01-11T15:10:04;23.10;63.00
15409;DHT22;7803;48.130;13.788;2024-01-11T15:13:06;23.10;63.00
15409;DHT22;7803;48.130;13.788;2024-01-11T15:16:08;23.00;63.00
15409;DHT22;7803;48.130;13.788;2024-01-11T15:19:10;23.00;63.00
15409;DHT22;7803;48.130;13.788;2024-01-11T15:22:14;23.00;63.00
15409;DHT22;7803;48.130;13.788;2024-01-11T15:25:16;23.00;62.70
15409;DHT22;7803;48.130;13.788;2024-01-11T15:28:19;23.00;62.80
15409;DHT22;7803;48.130;13.788;2024-01-11T15:31:21;23.00;62.10
15409;DHT22;7803;48.130;13.788;2024-01-11T15:34:23;23.00;59.80
15409;DHT22;7803;48.130;13.788;2024-01-11T15:37:26;23.00;59.60
15409;DHT22;7803;48.130;13.788;2024-01-11T15:40:29;23.00;60.00
15409;DHT22;7803;48.130;13.788;2024-01-11T15:43:31;23.00;60.30
15409;DHT22;7803;48.130;13.788;2024-01-11T15:46:33;22.90;60.50
15409;DHT22;7803;48.130;13.788;2024-01-11T15:49:35;22.90;60.60
15409;DHT22;7803;48.130;13.788;2024-01-11T15:52:39;22.90;60.90
15409;DHT22;7803;48.130;13.788;2024-01-11T15:55:41;22.90;61.10
15409;DHT22;7803;48.130;13.788;2024-01-11T15:58:43;22.90;61.20
15409;DHT22;7803;48.130;13.788;2024-01-11T16:01:45;22.90;61.30
15409;DHT22;7803;48.130;13.788;2024-01-11T16:04:47;22.90;61.10
15409;DHT22;7803;48.130;13.788;2024-01-11T16:07:50;22.90;61.30
15409;DHT22;7803;48.130;13.788;2024-01-11T16:10:52;22.90;61.40
15409;DHT22;7803;48.130;13.788;2024-01-11T16:13:54;22.90;61.30
15409;DHT22;7803;48.130;13.788;2024-01-11T16:16:56;22.90;61.70
15409;DHT22;7803;48.130;13.788;2024-01-11T16:19:58;22.90;62.40
15409;DHT22;7803;48.130;13.788;2024-01-11T16:23:01;23.00;62.80
15409;DHT22;7803;48.130;13.788;2024-01-11T16:26:06;22.90;62.70
15409;DHT22;7803;48.130;13.788;2024-01-11T16:29:08;22.90;62.60
15409;DHT22;7803;48.130;13.788;2024-01-11T16:32:10;22.90;63.40
15409;DHT22;7803;48.130;13.788;2024-01-11T16:35:12;22.90;62.50
15409;DHT22;7803;48.130;13.788;2024-01-11T16:38:16;22.90;62.50
15409;DHT22;7803;48.130;13.788;2024-01-11T16:41:18;22.90;62.50
15409;DHT22;7803;48.130;13.788;2024-01-11T16:44:20;22.90;62.50
15409;DHT22;7803;48.130;13.788;2024-01-11T16:47:22;23.00;62.40
15409;DHT22;7803;48.130;13.788;2024-01-11T16:50:24;23.00;62.40
15409;DHT22;7803;48.130;13.788;2024-01-11T16:53:27;23.00;62.20
15409;DHT22;7803;48.130;13.788;2024-01-11T16:56:30;23.00;62.30
15409;DHT22;7803;48.130;13.788;2024-01-11T16:59:32;23.00;62.40
15409;DHT22;7803;48.130;13.788;2024-01-11T17:02:36;23.00;63.30
15409;DHT22;7803;48.130;13.788;2024-01-11T17:05:38;23.00;62.30
15409;DHT22;7803;48.130;13.788;2024-01-11T17:08:42;23.00;62.40
15409;DHT22;7803;48.130;13.788;2024-01-11T17:11:44;23.00;62.20
15409;DHT22;7803;48.130;13.788;2024-01-11T17:14:45;23.00;62.20
15409;DHT22;7803;48.130;13.788;2024-01-11T17:17:47;23.00;61.60
15409;DHT22;7803;48.130;13.788;2024-01-11T17:20:49;23.00;61.60
15409;DHT22;7803;48.130;13.788;2024-01-11T17:23:53;23.00;61.40
15409;DHT22;7803;48.130;13.788;2024-01-11T17:26:55;23.10;61.50
15409;DHT22;7803;48.130;13.788;2024-01-11T17:29:58;23.10;61.40
15409;DHT22;7803;48.130;13.788;2024-01-11T17:33:00;23.10;61.40
15409;DHT22;7803;48.130;13.788;2024-01-11T17:36:04;23.10;61.30
15409;DHT22;7803;48.130;13.788;2024-01-11T17:39:08;23.10;62.50
15409;DHT22;7803;48.130;13.788;2024-01-11T17:42:10;23.10;63.30
15409;DHT22;7803;48.130;13.788;2024-01-11T17:45:12;23.00;64.30
15409;DHT22;7803;48.130;13.788;2024-01-11T17:48:14;23.10;65.20
15409;DHT22;7803;48.130;13.788;2024-01-11T17:51:17;23.10;66.80
15409;DHT22;7803;48.130;13.788;2024-01-11T17:54:20;23.10;73.10
15409;DHT22;7803;48.130;13.788;2024-01-11T17:57:22;23.20;72.70
15409;DHT22;7803;48.130;13.788;2024-01-11T18:00:24;23.30;72.80
15409;DHT22;7803;48.130;13.788;2024-01-11T18:03:30;23.30;72.80
15409;DHT22;7803;48.130;13.788;2024-01-11T18:06:32;23.40;75.20
15409;DHT22;7803;48.130;13.788;2024-01-11T18:09:36;23.40;76.60
15409;DHT22;7803;48.130;13.788;2024-01-11T18:12:38;23.50;76.50
15409;DHT22;7803;48.130;13.788;2024-01-11T18:15:40;23.50;80.10
15409;DHT22;7803;48.130;13.788;2024-01-11T18:18:42;23.60;75.00
15409;DHT22;7803;48.130;13.788;2024-01-11T18:21:44;23.70;73.60
15409;DHT22;7803;48.130;13.788;2024-01-11T18:24:47;23.70;72.70
15409;DHT22;7803;48.130;13.788;2024-01-11T18:27:49;23.70;71.60
15409;DHT22;7803;48.130;13.788;2024-01-11T18:30:51;23.70;71.20
15409;DHT22;7803;48.130;13.788;2024-01-11T18:33:53;23.70;70.60
15409;DHT22;7803;48.130;13.788;2024-01-11T18:36:55;23.70;70.10
15409;DHT22;7803;48.130;13.788;2024-01-11T18:39:59;23.80;69.60
15409;DHT22;7803;48.130;13.788;2024-01-11T18:43:01;23.70;69.20
15409;DHT22;7803;48.130;13.788;2024-01-11T18:46:04;23.70;71.30
15409;DHT22;7803;48.130;13.788;2024-01-11T18:49:06;23.70;69.80
15409;DHT22;7803;48.130;13.788;2024-01-11T18:52:08;23.70;67.90
15409;DHT22;7803;48.130;13.788;2024-01-11T18:55:11;23.60;66.80
15409;DHT22;7803;48.130;13.788;2024-01-11T18:58:15;23.60;65.90
15409;DHT22;7803;48.130;13.788;2024-01-11T19:01:18;23.60;64.30
15409;DHT22;7803;48.130;13.788;2024-01-11T19:04:25;23.60;64.00
15409;DHT22;7803;48.130;13.788;2024-01-11T19:07:27;23.50;63.20
15409;DHT22;7803;48.130;13.788;2024-01-11T19:10:31;23.50;62.80
15409;DHT22;7803;48.130;13.788;2024-01-11T19:13:33;23.50;62.60